sensor_id;sensor_type;location;lat;lon;timestamp;temperature;humidity
51839;DHT22;37886;53.174;6.368;2023-08-07T00:00:40;15.20;99.90
51839;DHT22;37886;53.174;6.368;2023-08-07T00:03:06;15.20;99.90
51839;DHT22;37886;53.174;6.368;2023-08-07T00:05:31;15.10;99.90
51839;DHT22;37886;53.174;6.368;2023-08-07T00:07:57;15.10;99.90
51839;DHT22;37886;53.174;6.368;2023-08-07T00:10:23;15.00;99.90
51839;DHT22;37886;53.174;6.368;2023-08-07T00:12:49;15.00;99.90
51839;DHT22;37886;53.174;6.368;2023-08-07T00:15:15;14.90;99.90
51839;DHT22;37886;53.174;6.368;2023-08-07T00:17:41;14.90;99.90
51839;DHT22;37886;53.174;6.368;2023-08-07T00:20:07;14.80;99.90
51839;DHT22;37886;53.174;6.368;2023-08-07T00:22:33;14.80;99.90
51839;DHT22;37886;53.174;6.368;2023-08-07T00:24:59;14.70;99.90
51839;DHT22;37886;53.174;6.368;2023-08-07T00:27:25;14.70;99.90
51839;DHT22;37886;53.174;6.368;2023-08-07T00:29:51;14.70;99.90
51839;DHT22;37886;53.174;6.368;2023-08-07T00:32:17;14.70;99.90
51839;DHT22;37886;53.174;6.368;2023-08-07T00:34:43;14.70;99.90
51839;DHT22;37886;53.174;6.368;2023-08-07T00:37:08;14.70;99.90
51839;DHT22;37886;53.174;6.368;2023-08-07T00:39:34;14.70;99.90
51839;DHT22;37886;53.174;6.368;2023-08-07T00:42:00;14.60;99.90
51839;DHT22;37886;53.174;6.368;2023-08-07T00:44:26;14.60;99.90
51839;DHT22;37886;53.174;6.368;2023-08-07T00:46:51;14.60;99.90
51839;DHT22;37886;53.174;6.368;2023-08-07T00:49:19;14.50;99.90
51839;DHT22;37886;53.174;6.368;2023-08-07T00:51:45;14.50;99.90
51839;DHT22;37886;53.174;6.368;2023-08-07T00:54:13;14.50;99.90
51839;DHT22;37886;53.174;6.368;2023-08-07T00:56:40;14.50;99.90
51839;DHT22;37886;53.174;6.368;2023-08-07T00:59:06;14.50;99.90
51839;DHT22;37886;53.174;6.368;2023-08-07T01:01:32;14.40;99.90
51839;DHT22;37886;53.174;6.368;2023-08-07T01:03:58;14.40;99.90
51839;DHT22;37886;53.174;6.368;2023-08-07T01:06:24;14.40;99.90
51839;DHT22;37886;53.174;6.368;2023-08-07T01:08:50;14.40;99.90
51839;DHT22;37886;53.174;6.368;2023-08-07T01:16:50;14.30;99.90
51839;DHT22;37886;53.174;6.368;2023-08-07T01:19:25;14.30;99.90
51839;DHT22;37886;53.174;6.368;2023-08-07T01:22:24;14.30;99.90
51839;DHT22;37886;53.174;6.368;2023-08-07T01:24:50;14.30;99.90
51839;DHT22;37886;53.174;6.368;2023-08-07T01:30:13;14.30;99.90
51839;DHT22;37886;53.174;6.368;2023-08-07T01:35:11;14.20;99.90
51839;DHT22;37886;53.174;6.368;2023-08-07T01:37:41;14.30;99.90
51839;DHT22;37886;53.174;6.368;2023-08-07T01:40:08;14.30;99.90
51839;DHT22;37886;53.174;6.368;2023-08-07T01:42:36;14.30;99.90
51839;DHT22;37886;53.174;6.368;2023-08-07T01:45:03;14.30;99.90
51839;DHT22;37886;53.174;6.368;2023-08-07T01:47:29;14.30;99.90
51839;DHT22;37886;53.174;6.368;2023-08-07T01:49:55;14.30;99.90
51839;DHT22;37886;53.174;6.368;2023-08-07T01:52:21;14.30;99.90
51839;DHT22;37886;53.174;6.368;2023-08-07T01:54:46;14.30;99.90
51839;DHT22;37886;53.174;6.368;2023-08-07T01:57:12;14.30;99.90
51839;DHT22;37886;53.174;6.368;2023-08-07T01:59:38;14.20;99.90
51839;DHT22;37886;53.174;6.368;2023-08-07T02:02:04;14.30;99.90
51839;DHT22;37886;53.174;6.368;2023-08-07T02:04:29;14.30;99.90
51839;DHT22;37886;53.174;6.368;2023-08-07T02:06:55;14.20;99.90
51839;DHT22;37886;53.174;6.368;2023-08-07T02:09:22;14.30;99.90
51839;DHT22;37886;53.174;6.368;2023-08-07T02:11:48;14.30;99.90
51839;DHT22;37886;53.174;6.368;2023-08-07T02:14:13;14.30;99.90
51839;DHT22;37886;53.174;6.368;2023-08-07T02:16:39;14.30;99.90
51839;DHT22;37886;53.174;6.368;2023-08-07T02:19:05;14.30;99.90
51839;DHT22;37886;53.174;6.368;2023-08-07T02:21:31;14.30;99.90
51839;DHT22;37886;53.174;6.368;2023-08-07T02:23:57;14.20;99.90
51839;DHT22;37886;53.174;6.368;2023-08-07T02:26:23;14.20;99.90
51839;DHT22;37886;53.174;6.368;2023-08-07T02:28:48;14.20;99.90
51839;DHT22;37886;53.174;6.368;2023-08-07T02:31:14;14.20;99.90
51839;DHT22;37886;53.174;6.368;2023-08-07T02:33:40;14.20;99.90
51839;DHT22;37886;53.174;6.368;2023-08-07T02:36:07;14.20;99.90
51839;DHT22;37886;53.174;6.368;2023-08-07T02:38:33;14.20;99.90
51839;DHT22;37886;53.174;6.368;2023-08-07T02:40:59;14.30;99.90
51839;DHT22;37886;53.174;6.368;2023-08-07T02:43:25;14.30;99.90
51839;DHT22;37886;53.174;6.368;2023-08-07T02:45:52;14.40;99.90
51839;DHT22;37886;53.174;6.368;2023-08-07T02:48:17;14.40;99.90
51839;DHT22;37886;53.174;6.368;2023-08-07T02:50:43;14.50;99.90
51839;DHT22;37886;53.174;6.368;2023-08-07T02:53:10;14.50;99.90
51839;DHT22;37886;53.174;6.368;2023-08-07T02:55:36;14.60;99.90
51839;DHT22;37886;53.174;6.368;2023-08-07T02:58:02;14.70;99.90
51839;DHT22;37886;53.174;6.368;2023-08-07T03:00:28;14.80;99.90
51839;DHT22;37886;53.174;6.368;2023-08-07T03:02:53;14.80;99.90
51839;DHT22;37886;53.174;6.368;2023-08-07T03:05:19;14.70;99.90
51839;DHT22;37886;53.174;6.368;2023-08-07T03:07:45;14.70;99.90
51839;DHT22;37886;53.174;6.368;2023-08-07T03:10:11;14.80;99.90
51839;DHT22;37886;53.174;6.368;2023-08-07T03:12:37;14.80;99.90
51839;DHT22;37886;53.174;6.368;2023-08-07T03:15:05;14.80;99.90
51839;DHT22;37886;53.174;6.368;2023-08-07T03:17:31;14.80;99.90
51839;DHT22;37886;53.174;6.368;2023-08-07T03:19:56;14.80;99.90
51839;DHT22;37886;53.174;6.368;2023-08-07T03:22:22;14.70;99.90
51839;DHT22;37886;53.174;6.368;2023-08-07T03:24:48;14.80;99.90
51839;DHT22;37886;53.174;6.368;2023-08-07T03:27:14;14.80;99.90
51839;DHT22;37886;53.174;6.368;2023-08-07T03:29:40;14.70;99.90
51839;DHT22;37886;53.174;6.368;2023-08-07T03:32:05;14.80;99.90
51839;DHT22;37886;53.174;6.368;2023-08-07T03:34:31;14.80;99.90
51839;DHT22;37886;53.174;6.368;2023-08-07T03:36:57;14.90;99.90
51839;DHT22;37886;53.174;6.368;2023-08-07T03:39:25;14.90;99.90
51839;DHT22;37886;53.174;6.368;2023-08-07T03:41:51;15.00;99.90
51839;DHT22;37886;53.174;6.368;2023-08-07T03:44:16;15.00;99.90
51839;DHT22;37886;53.174;6.368;2023-08-07T03:46:42;15.10;99.90
51839;DHT22;37886;53.174;6.368;2023-08-07T03:49:08;15.20;99.90
51839;DHT22;37886;53.174;6.368;2023-08-07T03:51:33;15.10;99.90
51839;DHT22;37886;53.174;6.368;2023-08-07T03:53:59;15.10;99.90
51839;DHT22;37886;53.174;6.368;2023-08-07T03:56:25;15.10;99.90
51839;DHT22;37886;53.174;6.368;2023-08-07T03:58:51;15.00;99.90
51839;DHT22;37886;53.174;6.368;2023-08-07T04:01:17;15.10;99.90
51839;DHT22;37886;53.174;6.368;2023-08-07T04:03:43;15.10;99.90
51839;DHT22;37886;53.174;6.368;2023-08-07T04:06:08;15.10;99.90
51839;DHT22;37886;53.174;6.368;2023-08-07T04:08:36;15.00;99.90
51839;DHT22;37886;53.174;6.368;2023-08-07T04:11:04;15.00;99.90
51839;DHT22;37886;53.174;6.368;2023-08-07T04:13:30;15.00;99.90
51839;DHT22;37886;53.174;6.368;2023-08-07T04:15:57;14.90;99.90
51839;DHT22;37886;53.174;6.368;2023-08-07T04:18:23;14.90;99.90
51839;DHT22;37886;53.174;6.368;2023-08-07T04:20:52;15.00;99.90
51839;DHT22;37886;53.174;6.368;2023-08-07T04:23:19;14.90;99.90
51839;DHT22;37886;53.174;6.368;2023-08-07T04:25:46;14.90;99.90
51839;DHT22;37886;53.174;6.368;2023-08-07T04:28:12;14.70;99.90
51839;DHT22;37886;53.174;6.368;2023-08-07T04:30:38;14.90;99.90
51839;DHT22;37886;53.174;6.368;2023-08-07T04:33:04;14.80;99.90
51839;DHT22;37886;53.174;6.368;2023-08-07T04:35:30;14.80;99.90
51839;DHT22;37886;53.174;6.368;2023-08-07T04:37:56;14.80;99.90
51839;DHT22;37886;53.174;6.368;2023-08-07T04:40:22;15.00;99.90
51839;DHT22;37886;53.174;6.368;2023-08-07T04:42:51;15.20;99.90
51839;DHT22;37886;53.174;6.368;2023-08-07T04:45:17;15.00;99.90
51839;DHT22;37886;53.174;6.368;2023-08-07T04:47:42;15.00;99.90
51839;DHT22;37886;53.174;6.368;2023-08-07T04:50:08;15.10;99.90
51839;DHT22;37886;53.174;6.368;2023-08-07T04:52:35;15.10;99.90
51839;DHT22;37886;53.174;6.368;2023-08-07T04:55:01;15.10;99.90
51839;DHT22;37886;53.174;6.368;2023-08-07T04:57:27;15.10;99.90
51839;DHT22;37886;53.174;6.368;2023-08-07T04:59:53;15.20;99.90
51839;DHT22;37886;53.174;6.368;2023-08-07T05:02:19;15.10;99.90
51839;DHT22;37886;53.174;6.368;2023-08-07T05:04:45;15.20;99.90
51839;DHT22;37886;53.174;6.368;2023-08-07T05:07:11;15.20;99.90
51839;DHT22;37886;53.174;6.368;2023-08-07T05:09:38;15.20;99.90
51839;DHT22;37886;53.174;6.368;2023-08-07T05:12:05;15.30;99.90
51839;DHT22;37886;53.174;6.368;2023-08-07T05:14:31;15.20;99.90
51839;DHT22;37886;53.174;6.368;2023-08-07T05:16:57;15.20;99.90
51839;DHT22;37886;53.174;6.368;2023-08-07T05:19:25;15.10;99.90
51839;DHT22;37886;53.174;6.368;2023-08-07T05:21:51;15.00;99.90
51839;DHT22;37886;53.174;6.368;2023-08-07T05:24:17;14.90;99.90
51839;DHT22;37886;53.174;6.368;2023-08-07T05:26:44;14.90;99.90
51839;DHT22;37886;53.174;6.368;2023-08-07T05:29:09;14.80;99.90
51839;DHT22;37886;53.174;6.368;2023-08-07T05:31:35;14.90;99.90
51839;DHT22;37886;53.174;6.368;2023-08-07T05:34:01;14.90;99.90
51839;DHT22;37886;53.174;6.368;2023-08-07T05:36:27;15.00;99.90
51839;DHT22;37886;53.174;6.368;2023-08-07T05:38:54;15.00;99.90
51839;DHT22;37886;53.174;6.368;2023-08-07T05:41:20;15.10;99.90
51839;DHT22;37886;53.174;6.368;2023-08-07T05:43:46;15.10;99.90
51839;DHT22;37886;53.174;6.368;2023-08-07T05:46:11;15.20;99.90
51839;DHT22;37886;53.174;6.368;2023-08-07T05:48:37;15.20;99.90
51839;DHT22;37886;53.174;6.368;2023-08-07T05:51:03;15.20;99.90
51839;DHT22;37886;53.174;6.368;2023-08-07T05:53:29;15.20;99.90
51839;DHT22;37886;53.174;6.368;2023-08-07T05:55:55;15.10;99.90
51839;DHT22;37886;53.174;6.368;2023-08-07T05:58:21;15.00;99.90
51839;DHT22;37886;53.174;6.368;2023-08-07T06:00:46;15.00;99.90
51839;DHT22;37886;53.174;6.368;2023-08-07T06:03:12;15.20;99.90
51839;DHT22;37886;53.174;6.368;2023-08-07T06:05:38;15.20;99.90
51839;DHT22;37886;53.174;6.368;2023-08-07T06:08:04;15.20;99.90
51839;DHT22;37886;53.174;6.368;2023-08-07T06:10:30;15.20;99.90
51839;DHT22;37886;53.174;6.368;2023-08-07T06:12:55;15.20;99.90
51839;DHT22;37886;53.174;6.368;2023-08-07T06:15:21;15.20;99.90
51839;DHT22;37886;53.174;6.368;2023-08-07T06:17:47;15.20;99.90
51839;DHT22;37886;53.174;6.368;2023-08-07T06:20:12;15.30;99.90
51839;DHT22;37886;53.174;6.368;2023-08-07T06:22:40;15.40;99.90
51839;DHT22;37886;53.174;6.368;2023-08-07T06:25:06;15.50;99.90
51839;DHT22;37886;53.174;6.368;2023-08-07T06:27:32;15.50;99.90
51839;DHT22;37886;53.174;6.368;2023-08-07T06:29:58;15.60;99.90
51839;DHT22;37886;53.174;6.368;2023-08-07T06:32:25;15.70;99.90
51839;DHT22;37886;53.174;6.368;2023-08-07T06:34:51;15.90;99.90
51839;DHT22;37886;53.174;6.368;2023-08-07T06:37:16;16.00;99.90
51839;DHT22;37886;53.174;6.368;2023-08-07T06:39:42;16.10;99.90
51839;DHT22;37886;53.174;6.368;2023-08-07T06:42:08;16.10;99.90
51839;DHT22;37886;53.174;6.368;2023-08-07T06:44:34;16.10;99.90
51839;DHT22;37886;53.174;6.368;2023-08-07T06:46:59;16.10;99.90
51839;DHT22;37886;53.174;6.368;2023-08-07T06:49:25;16.10;99.90
51839;DHT22;37886;53.174;6.368;2023-08-07T06:51:51;16.00;99.90
51839;DHT22;37886;53.174;6.368;2023-08-07T06:54:16;16.00;99.90
51839;DHT22;37886;53.174;6.368;2023-08-07T06:56:42;16.00;99.90
51839;DHT22;37886;53.174;6.368;2023-08-07T06:59:09;16.10;99.90
51839;DHT22;37886;53.174;6.368;2023-08-07T07:01:35;16.10;99.90
51839;DHT22;37886;53.174;6.368;2023-08-07T07:04:01;16.10;99.90
51839;DHT22;37886;53.174;6.368;2023-08-07T07:06:27;16.10;99.90
51839;DHT22;37886;53.174;6.368;2023-08-07T07:08:53;16.00;99.90
51839;DHT22;37886;53.174;6.368;2023-08-07T07:11:22;15.70;99.90
51839;DHT22;37886;53.174;6.368;2023-08-07T07:13:50;15.60;99.90
51839;DHT22;37886;53.174;6.368;2023-08-07T07:16:17;15.50;99.90
51839;DHT22;37886;53.174;6.368;2023-08-07T07:18:43;15.40;99.90
51839;DHT22;37886;53.174;6.368;2023-08-07T07:21:09;15.40;99.90
51839;DHT22;37886;53.174;6.368;2023-08-07T07:23:35;15.50;99.90
51839;DHT22;37886;53.174;6.368;2023-08-07T07:26:00;15.30;99.90
51839;DHT22;37886;53.174;6.368;2023-08-07T07:28:27;14.90;99.90
51839;DHT22;37886;53.174;6.368;2023-08-07T07:30:52;14.80;99.90
51839;DHT22;37886;53.174;6.368;2023-08-07T07:33:18;14.80;99.90
51839;DHT22;37886;53.174;6.368;2023-08-07T07:35:44;15.00;99.90
51839;DHT22;37886;53.174;6.368;2023-08-07T07:38:10;15.10;99.90
51839;DHT22;37886;53.174;6.368;2023-08-07T07:40:36;15.20;99.90
51839;DHT22;37886;53.174;6.368;2023-08-07T07:43:03;15.20;99.90
51839;DHT22;37886;53.174;6.368;2023-08-07T07:45:28;15.10;99.90
51839;DHT22;37886;53.174;6.368;2023-08-07T07:47:55;15.30;99.90
51839;DHT22;37886;53.174;6.368;2023-08-07T07:50:21;15.30;99.90
51839;DHT22;37886;53.174;6.368;2023-08-07T07:52:46;15.30;99.90
51839;DHT22;37886;53.174;6.368;2023-08-07T07:55:12;15.10;99.90
51839;DHT22;37886;53.174;6.368;2023-08-07T07:57:39;14.90;99.90
51839;DHT22;37886;53.174;6.368;2023-08-07T08:00:06;14.80;99.90
51839;DHT22;37886;53.174;6.368;2023-08-07T08:02:36;14.80;99.90
51839;DHT22;37886;53.174;6.368;2023-08-07T08:05:02;14.80;99.90
51839;DHT22;37886;53.174;6.368;2023-08-07T08:07:28;14.60;99.90
51839;DHT22;37886;53.174;6.368;2023-08-07T08:09:54;14.50;99.90
51839;DHT22;37886;53.174;6.368;2023-08-07T08:12:21;14.40;99.90
51839;DHT22;37886;53.174;6.368;2023-08-07T08:14:47;14.60;99.90
51839;DHT22;37886;53.174;6.368;2023-08-07T08:17:13;14.70;99.90
51839;DHT22;37886;53.174;6.368;2023-08-07T08:19:39;14.90;99.90
51839;DHT22;37886;53.174;6.368;2023-08-07T08:22:05;15.00;99.90
51839;DHT22;37886;53.174;6.368;2023-08-07T08:24:31;14.90;99.90
51839;DHT22;37886;53.174;6.368;2023-08-07T08:26:57;15.00;99.90
51839;DHT22;37886;53.174;6.368;2023-08-07T08:29:23;15.10;99.90
51839;DHT22;37886;53.174;6.368;2023-08-07T08:31:49;15.10;99.90
51839;DHT22;37886;53.174;6.368;2023-08-07T08:34:16;15.30;99.90
51839;DHT22;37886;53.174;6.368;2023-08-07T08:36:42;15.50;99.90
51839;DHT22;37886;53.174;6.368;2023-08-07T08:39:08;15.70;99.90
51839;DHT22;37886;53.174;6.368;2023-08-07T08:41:34;15.90;99.90
51839;DHT22;37886;53.174;6.368;2023-08-07T08:44:01;16.20;99.90
51839;DHT22;37886;53.174;6.368;2023-08-07T08:46:29;16.10;99.90
51839;DHT22;37886;53.174;6.368;2023-08-07T08:48:57;16.30;99.90
51839;DHT22;37886;53.174;6.368;2023-08-07T08:51:25;16.50;99.90
51839;DHT22;37886;53.174;6.368;2023-08-07T08:53:54;16.60;99.90
51839;DHT22;37886;53.174;6.368;2023-08-07T08:56:22;16.60;99.90
51839;DHT22;37886;53.174;6.368;2023-08-07T08:58:50;16.50;99.90
51839;DHT22;37886;53.174;6.368;2023-08-07T09:01:17;16.60;99.90
51839;DHT22;37886;53.174;6.368;2023-08-07T09:03:47;16.70;99.90
51839;DHT22;37886;53.174;6.368;2023-08-07T09:06:13;16.70;99.90
51839;DHT22;37886;53.174;6.368;2023-08-07T09:08:43;16.90;99.90
51839;DHT22;37886;53.174;6.368;2023-08-07T09:11:10;16.90;99.90
51839;DHT22;37886;53.174;6.368;2023-08-07T09:13:38;17.10;99.90
51839;DHT22;37886;53.174;6.368;2023-08-07T09:16:08;17.00;99.90
51839;DHT22;37886;53.174;6.368;2023-08-07T09:18:35;17.20;99.90
51839;DHT22;37886;53.174;6.368;2023-08-07T09:21:02;17.40;99.90
51839;DHT22;37886;53.174;6.368;2023-08-07T09:23:28;17.30;99.90
51839;DHT22;37886;53.174;6.368;2023-08-07T09:26:01;17.40;99.90
51839;DHT22;37886;53.174;6.368;2023-08-07T09:28:28;17.30;99.90
51839;DHT22;37886;53.174;6.368;2023-08-07T09:30:55;17.10;99.90
51839;DHT22;37886;53.174;6.368;2023-08-07T09:33:29;17.10;99.90
51839;DHT22;37886;53.174;6.368;2023-08-07T09:36:00;17.30;99.90
51839;DHT22;37886;53.174;6.368;2023-08-07T09:38:29;17.40;99.90
51839;DHT22;37886;53.174;6.368;2023-08-07T09:40:59;17.10;99.90
51839;DHT22;37886;53.174;6.368;2023-08-07T09:43:24;17.20;99.90
51839;DHT22;37886;53.174;6.368;2023-08-07T09:45:50;17.50;99.90
51839;DHT22;37886;53.174;6.368;2023-08-07T09:48:24;18.00;99.90
51839;DHT22;37886;53.174;6.368;2023-08-07T09:50:54;17.80;99.90
51839;DHT22;37886;53.174;6.368;2023-08-07T09:53:27;17.50;99.90
51839;DHT22;37886;53.174;6.368;2023-08-07T09:55:56;17.40;99.90
51839;DHT22;37886;53.174;6.368;2023-08-07T09:58:23;17.30;99.90
51839;DHT22;37886;53.174;6.368;2023-08-07T10:00:49;17.40;99.90
51839;DHT22;37886;53.174;6.368;2023-08-07T10:03:15;17.40;99.90
51839;DHT22;37886;53.174;6.368;2023-08-07T10:05:43;17.50;99.90
51839;DHT22;37886;53.174;6.368;2023-08-07T10:08:10;17.60;99.90
51839;DHT22;37886;53.174;6.368;2023-08-07T10:10:38;17.50;99.90
51839;DHT22;37886;53.174;6.368;2023-08-07T10:13:05;17.30;99.90
51839;DHT22;37886;53.174;6.368;2023-08-07T10:15:32;17.30;99.90
51839;DHT22;37886;53.174;6.368;2023-08-07T10:17:58;17.60;99.90
51839;DHT22;37886;53.174;6.368;2023-08-07T10:20:28;18.00;99.90
51839;DHT22;37886;53.174;6.368;2023-08-07T10:23:00;18.20;99.90
51839;DHT22;37886;53.174;6.368;2023-08-07T10:25:27;18.10;99.90
51839;DHT22;37886;53.174;6.368;2023-08-07T10:27:55;18.30;99.90
51839;DHT22;37886;53.174;6.368;2023-08-07T10:30:22;18.10;99.90
51839;DHT22;37886;53.174;6.368;2023-08-07T10:32:49;18.10;99.90
51839;DHT22;37886;53.174;6.368;2023-08-07T10:35:28;18.20;99.90
51839;DHT22;37886;53.174;6.368;2023-08-07T10:37:55;18.40;99.90
51839;DHT22;37886;53.174;6.368;2023-08-07T10:40:31;18.50;99.90
51839;DHT22;37886;53.174;6.368;2023-08-07T10:43:12;18.80;99.90
51839;DHT22;37886;53.174;6.368;2023-08-07T10:45:38;18.60;99.90
51839;DHT22;37886;53.174;6.368;2023-08-07T10:50:34;18.70;99.90
51839;DHT22;37886;53.174;6.368;2023-08-07T10:53:04;19.10;99.90
51839;DHT22;37886;53.174;6.368;2023-08-07T10:55:45;19.10;99.90
51839;DHT22;37886;53.174;6.368;2023-08-07T10:58:24;19.00;99.90
51839;DHT22;37886;53.174;6.368;2023-08-07T11:00:52;19.10;99.90
51839;DHT22;37886;53.174;6.368;2023-08-07T11:03:27;18.80;99.90
51839;DHT22;37886;53.174;6.368;2023-08-07T11:05:53;18.50;99.90
51839;DHT22;37886;53.174;6.368;2023-08-07T11:08:23;18.80;99.90
51839;DHT22;37886;53.174;6.368;2023-08-07T11:10:51;19.20;99.90
51839;DHT22;37886;53.174;6.368;2023-08-07T11:13:17;18.90;99.90
51839;DHT22;37886;53.174;6.368;2023-08-07T11:15:43;18.70;99.90
51839;DHT22;37886;53.174;6.368;2023-08-07T11:18:10;18.30;99.90
51839;DHT22;37886;53.174;6.368;2023-08-07T11:20:35;18.30;99.90
51839;DHT22;37886;53.174;6.368;2023-08-07T11:23:04;18.10;99.90
51839;DHT22;37886;53.174;6.368;2023-08-07T11:25:31;18.10;99.90
51839;DHT22;37886;53.174;6.368;2023-08-07T11:27:57;18.20;99.90
51839;DHT22;37886;53.174;6.368;2023-08-07T11:30:23;18.50;99.90
51839;DHT22;37886;53.174;6.368;2023-08-07T11:32:49;18.70;99.90
51839;DHT22;37886;53.174;6.368;2023-08-07T11:35:15;18.80;99.90
51839;DHT22;37886;53.174;6.368;2023-08-07T11:37:47;18.70;99.90
51839;DHT22;37886;53.174;6.368;2023-08-07T11:40:13;18.60;99.90
51839;DHT22;37886;53.174;6.368;2023-08-07T11:42:40;18.50;99.90
51839;DHT22;37886;53.174;6.368;2023-08-07T11:45:07;18.30;99.90
51839;DHT22;37886;53.174;6.368;2023-08-07T11:47:33;18.10;99.90
51839;DHT22;37886;53.174;6.368;2023-08-07T11:49:59;18.00;99.90
51839;DHT22;37886;53.174;6.368;2023-08-07T11:52:25;17.90;99.90
51839;DHT22;37886;53.174;6.368;2023-08-07T11:54:52;17.40;99.90
51839;DHT22;37886;53.174;6.368;2023-08-07T11:57:20;17.20;99.90
51839;DHT22;37886;53.174;6.368;2023-08-07T11:59:50;17.30;99.90
51839;DHT22;37886;53.174;6.368;2023-08-07T12:02:16;17.40;99.90
51839;DHT22;37886;53.174;6.368;2023-08-07T12:04:42;17.10;99.90
51839;DHT22;37886;53.174;6.368;2023-08-07T12:07:08;16.80;99.90
51839;DHT22;37886;53.174;6.368;2023-08-07T12:09:36;16.50;99.90
51839;DHT22;37886;53.174;6.368;2023-08-07T12:12:03;15.90;99.90
51839;DHT22;37886;53.174;6.368;2023-08-07T12:14:32;15.50;99.90
51839;DHT22;37886;53.174;6.368;2023-08-07T12:17:00;15.20;99.90
51839;DHT22;37886;53.174;6.368;2023-08-07T12:19:36;15.20;99.90
51839;DHT22;37886;53.174;6.368;2023-08-07T12:22:02;15.60;99.90
51839;DHT22;37886;53.174;6.368;2023-08-07T12:24:29;15.80;99.90
51839;DHT22;37886;53.174;6.368;2023-08-07T12:26:55;16.60;99.90
51839;DHT22;37886;53.174;6.368;2023-08-07T12:29:20;17.00;99.90
51839;DHT22;37886;53.174;6.368;2023-08-07T12:31:47;17.50;99.90
51839;DHT22;37886;53.174;6.368;2023-08-07T12:34:13;18.00;99.90
51839;DHT22;37886;53.174;6.368;2023-08-07T12:36:39;18.20;99.90
51839;DHT22;37886;53.174;6.368;2023-08-07T12:39:04;18.10;99.90
51839;DHT22;37886;53.174;6.368;2023-08-07T12:41:32;18.40;99.90
51839;DHT22;37886;53.174;6.368;2023-08-07T12:43:57;18.80;99.90
51839;DHT22;37886;53.174;6.368;2023-08-07T12:46:24;18.80;99.90
51839;DHT22;37886;53.174;6.368;2023-08-07T12:48:50;18.30;99.90
51839;DHT22;37886;53.174;6.368;2023-08-07T12:51:17;18.30;99.90
51839;DHT22;37886;53.174;6.368;2023-08-07T12:53:42;18.30;99.90
51839;DHT22;37886;53.174;6.368;2023-08-07T12:56:10;18.10;99.90
51839;DHT22;37886;53.174;6.368;2023-08-07T12:58:36;18.10;99.90
51839;DHT22;37886;53.174;6.368;2023-08-07T13:01:01;18.30;99.90
51839;DHT22;37886;53.174;6.368;2023-08-07T13:03:27;18.60;99.90
51839;DHT22;37886;53.174;6.368;2023-08-07T13:05:53;18.40;99.90
51839;DHT22;37886;53.174;6.368;2023-08-07T13:08:19;18.50;99.90
51839;DHT22;37886;53.174;6.368;2023-08-07T13:10:44;18.70;99.90
51839;DHT22;37886;53.174;6.368;2023-08-07T13:13:10;18.70;99.90
51839;DHT22;37886;53.174;6.368;2023-08-07T13:15:36;18.40;99.90
51839;DHT22;37886;53.174;6.368;2023-08-07T13:18:02;18.40;99.90
51839;DHT22;37886;53.174;6.368;2023-08-07T13:20:28;18.50;99.90
51839;DHT22;37886;53.174;6.368;2023-08-07T13:22:58;18.70;99.90
51839;DHT22;37886;53.174;6.368;2023-08-07T13:25:24;18.90;99.90
51839;DHT22;37886;53.174;6.368;2023-08-07T13:27:50;18.70;99.90
51839;DHT22;37886;53.174;6.368;2023-08-07T13:30:16;18.60;99.90
51839;DHT22;37886;53.174;6.368;2023-08-07T13:32:41;18.50;99.90
51839;DHT22;37886;53.174;6.368;2023-08-07T13:35:07;18.70;99.90
51839;DHT22;37886;53.174;6.368;2023-08-07T13:37:34;19.00;99.90
51839;DHT22;37886;53.174;6.368;2023-08-07T13:40:00;19.20;99.90
51839;DHT22;37886;53.174;6.368;2023-08-07T13:42:26;19.00;99.90
51839;DHT22;37886;53.174;6.368;2023-08-07T13:44:54;18.80;99.90
51839;DHT22;37886;53.174;6.368;2023-08-07T13:47:20;18.80;99.90
51839;DHT22;37886;53.174;6.368;2023-08-07T13:49:46;19.60;99.90
51839;DHT22;37886;53.174;6.368;2023-08-07T13:52:12;20.30;99.90
51839;DHT22;37886;53.174;6.368;2023-08-07T13:54:38;20.50;99.90
51839;DHT22;37886;53.174;6.368;2023-08-07T13:57:04;19.90;99.90
51839;DHT22;37886;53.174;6.368;2023-08-07T13:59:30;19.90;99.90
51839;DHT22;37886;53.174;6.368;2023-08-07T14:01:55;20.00;99.90
51839;DHT22;37886;53.174;6.368;2023-08-07T14:04:22;19.80;99.90
51839;DHT22;37886;53.174;6.368;2023-08-07T14:06:47;19.40;99.90
51839;DHT22;37886;53.174;6.368;2023-08-07T14:09:13;19.30;99.90
51839;DHT22;37886;53.174;6.368;2023-08-07T14:11:39;19.10;99.90
51839;DHT22;37886;53.174;6.368;2023-08-07T14:14:05;18.70;99.90
51839;DHT22;37886;53.174;6.368;2023-08-07T14:16:31;18.80;99.90
51839;DHT22;37886;53.174;6.368;2023-08-07T14:18:57;19.00;99.90
51839;DHT22;37886;53.174;6.368;2023-08-07T14:21:23;19.30;99.90
51839;DHT22;37886;53.174;6.368;2023-08-07T14:23:48;19.10;99.90
51839;DHT22;37886;53.174;6.368;2023-08-07T14:26:15;18.90;99.90
51839;DHT22;37886;53.174;6.368;2023-08-07T14:28:43;18.70;99.90
51839;DHT22;37886;53.174;6.368;2023-08-07T14:31:09;18.70;99.90
51839;DHT22;37886;53.174;6.368;2023-08-07T14:33:35;18.60;99.90
51839;DHT22;37886;53.174;6.368;2023-08-07T14:36:01;19.70;99.90
51839;DHT22;37886;53.174;6.368;2023-08-07T14:38:28;20.30;99.90
51839;DHT22;37886;53.174;6.368;2023-08-07T14:40:54;20.70;99.90
51839;DHT22;37886;53.174;6.368;2023-08-07T14:43:21;20.00;99.90
51839;DHT22;37886;53.174;6.368;2023-08-07T14:45:46;19.40;99.90
51839;DHT22;37886;53.174;6.368;2023-08-07T14:48:13;19.00;99.90
51839;DHT22;37886;53.174;6.368;2023-08-07T14:50:40;18.70;99.90
51839;DHT22;37886;53.174;6.368;2023-08-07T14:53:05;18.40;99.90
51839;DHT22;37886;53.174;6.368;2023-08-07T14:55:31;18.20;99.90
51839;DHT22;37886;53.174;6.368;2023-08-07T14:57:57;18.20;99.90
51839;DHT22;37886;53.174;6.368;2023-08-07T15:00:23;18.10;99.90
51839;DHT22;37886;53.174;6.368;2023-08-07T15:02:49;18.20;99.90
51839;DHT22;37886;53.174;6.368;2023-08-07T15:05:14;18.00;99.90
51839;DHT22;37886;53.174;6.368;2023-08-07T15:07:40;17.90;99.90
51839;DHT22;37886;53.174;6.368;2023-08-07T15:10:08;18.10;99.90
51839;DHT22;37886;53.174;6.368;2023-08-07T15:12:34;19.20;99.90
51839;DHT22;37886;53.174;6.368;2023-08-07T15:14:59;18.90;99.90
51839;DHT22;37886;53.174;6.368;2023-08-07T15:17:25;18.50;99.90
51839;DHT22;37886;53.174;6.368;2023-08-07T15:19:51;18.30;99.90
51839;DHT22;37886;53.174;6.368;2023-08-07T15:22:16;18.70;99.90
51839;DHT22;37886;53.174;6.368;2023-08-07T15:24:42;18.40;99.90
51839;DHT22;37886;53.174;6.368;2023-08-07T15:27:08;18.20;99.90
51839;DHT22;37886;53.174;6.368;2023-08-07T15:29:34;19.10;99.90
51839;DHT22;37886;53.174;6.368;2023-08-07T15:31:59;19.20;99.90
51839;DHT22;37886;53.174;6.368;2023-08-07T15:34:25;18.90;99.90
51839;DHT22;37886;53.174;6.368;2023-08-07T15:36:51;18.50;99.90
51839;DHT22;37886;53.174;6.368;2023-08-07T15:39:16;18.60;99.90